Nordborg, Denmark
Current Conditions -  °F | °C
As of 10:50 PM on Wednesday 26 Nov 2014 (Local Time) from EKSB Reporting Station
Broken Clouds Broken Clouds  
Wind Chill:   Ceiling: 1500
Heat Index:   Visibility: 6mi
Dew Point:   Wind: 16mph
Humidity: 81%   Direction: 130°SE
Pressure: 30.09"   Gusts: NA
Location:  55.06°N, 9.74°E
Report Text: EKSB 262150Z 13014KT 9999 BKN015 06/03 Q1019
Loading
Personal Weather Stations






























Interactive Weather Map New forecast layout! Learn more

10-Day Weather Forecast

Advertisements
Track Severe Weather on mobile